sensor_id;sensor_type;location;lat;lon;timestamp;pressure;altitude;pressure_sealevel;temperature;humidity
64064;BME280;50314;50.618;10.642;2023-02-04T00:00:20;97450.66;;;15.29;24.55
64064;BME280;50314;50.618;10.642;2023-02-04T00:02:46;97457.69;;;15.30;24.24
64064;BME280;50314;50.618;10.642;2023-02-04T00:05:12;97471.88;;;15.29;24.39
64064;BME280;50314;50.618;10.642;2023-02-04T00:07:38;97465.75;;;15.28;24.37
64064;BME280;50314;50.618;10.642;2023-02-04T00:10:04;97469.25;;;15.29;24.57
64064;BME280;50314;50.618;10.642;2023-02-04T00:12:31;97472.72;;;15.30;24.24
64064;BME280;50314;50.618;10.642;2023-02-04T00:14:56;97478.19;;;15.28;24.38
64064;BME280;50314;50.618;10.642;2023-02-04T00:17:22;97485.28;;;15.27;24.30
64064;BME280;50314;50.618;10.642;2023-02-04T00:19:47;97496.03;;;15.26;24.52
64064;BME280;50314;50.618;10.642;2023-02-04T00:22:13;97493.50;;;15.24;24.42
64064;BME280;50314;50.618;10.642;2023-02-04T00:24:39;97501.31;;;15.26;24.46
64064;BME280;50314;50.618;10.642;2023-02-04T00:27:07;97511.94;;;15.26;24.35
64064;BME280;50314;50.618;10.642;2023-02-04T00:29:33;97520.88;;;15.25;24.54
64064;BME280;50314;50.618;10.642;2023-02-04T00:31:58;97521.72;;;15.25;24.39
64064;BME280;50314;50.618;10.642;2023-02-04T00:34:24;97531.50;;;15.25;24.58
64064;BME280;50314;50.618;10.642;2023-02-04T00:36:49;97534.28;;;15.23;24.64
64064;BME280;50314;50.618;10.642;2023-02-04T00:39:15;97543.94;;;15.24;24.50
64064;BME280;50314;50.618;10.642;2023-02-04T00:41:40;97546.69;;;15.23;24.47
64064;BME280;50314;50.618;10.642;2023-02-04T00:44:06;97537.78;;;15.24;24.38
64064;BME280;50314;50.618;10.642;2023-02-04T00:46:31;97533.41;;;15.23;24.54
64064;BME280;50314;50.618;10.642;2023-02-04T00:48:56;97536.06;;;15.23;24.17
64064;BME280;50314;50.618;10.642;2023-02-04T00:51:22;97538.03;;;15.21;24.37
64064;BME280;50314;50.618;10.642;2023-02-04T00:53:47;97542.50;;;15.20;24.66
64064;BME280;50314;50.618;10.642;2023-02-04T00:56:13;97545.25;;;15.19;24.69
64064;BME280;50314;50.618;10.642;2023-02-04T00:58:38;97543.44;;;15.19;24.63
64064;BME280;50314;50.618;10.642;2023-02-04T01:01:04;97545.16;;;15.20;24.34
64064;BME280;50314;50.618;10.642;2023-02-04T01:03:29;97553.22;;;15.19;24.54
64064;BME280;50314;50.618;10.642;2023-02-04T01:05:55;97569.13;;;15.19;24.52
64064;BME280;50314;50.618;10.642;2023-02-04T01:08:20;97566.47;;;15.19;24.55
64064;BME280;50314;50.618;10.642;2023-02-04T01:10:46;97572.75;;;15.18;24.33
64064;BME280;50314;50.618;10.642;2023-02-04T01:13:12;97563.13;;;15.17;24.38
64064;BME280;50314;50.618;10.642;2023-02-04T01:15:37;97560.56;;;15.15;24.50
64064;BME280;50314;50.618;10.642;2023-02-04T01:18:03;97566.72;;;15.16;24.55
64064;BME280;50314;50.618;10.642;2023-02-04T01:20:28;97574.69;;;15.16;24.43
64064;BME280;50314;50.618;10.642;2023-02-04T01:22:54;97583.47;;;15.16;24.69
64064;BME280;50314;50.618;10.642;2023-02-04T01:25:19;97582.63;;;15.16;24.33
64064;BME280;50314;50.618;10.642;2023-02-04T01:27:45;97582.63;;;15.16;24.29
64064;BME280;50314;50.618;10.642;2023-02-04T01:30:13;97582.63;;;15.16;24.21
64064;BME280;50314;50.618;10.642;2023-02-04T01:32:39;97592.41;;;15.15;24.60
64064;BME280;50314;50.618;10.642;2023-02-04T01:35:05;97601.22;;;15.16;24.31
64064;BME280;50314;50.618;10.642;2023-02-04T01:37:30;97612.78;;;15.15;24.54
64064;BME280;50314;50.618;10.642;2023-02-04T01:39:56;97624.38;;;15.14;24.24
64064;BME280;50314;50.618;10.642;2023-02-04T01:42:21;97621.72;;;15.14;24.65
64064;BME280;50314;50.618;10.642;2023-02-04T01:44:47;97620.03;;;15.13;24.35
64064;BME280;50314;50.618;10.642;2023-02-04T01:47:13;97622.81;;;15.11;24.47
64064;BME280;50314;50.618;10.642;2023-02-04T01:49:38;97630.75;;;15.11;24.55
64064;BME280;50314;50.618;10.642;2023-02-04T01:52:04;97631.59;;;15.12;24.29
64064;BME280;50314;50.618;10.642;2023-02-04T01:54:30;97632.56;;;15.11;24.57
64064;BME280;50314;50.618;10.642;2023-02-04T01:56:56;97634.38;;;15.10;24.66
64064;BME280;50314;50.618;10.642;2023-02-04T01:59:22;97643.19;;;15.11;24.36
64064;BME280;50314;50.618;10.642;2023-02-04T02:01:51;97650.19;;;15.12;24.54
64064;BME280;50314;50.618;10.642;2023-02-04T02:04:20;97655.47;;;15.12;24.76
64064;BME280;50314;50.618;10.642;2023-02-04T02:06:53;97656.31;;;15.12;24.82
64064;BME280;50314;50.618;10.642;2023-02-04T02:09:21;97653.56;;;15.14;24.53
64064;BME280;50314;50.618;10.642;2023-02-04T02:11:47;97670.31;;;15.14;24.85
64064;BME280;50314;50.618;10.642;2023-02-04T02:14:13;97676.59;;;15.13;24.54
64064;BME280;50314;50.618;10.642;2023-02-04T02:16:39;97689.75;;;15.15;24.53
64064;BME280;50314;50.618;10.642;2023-02-04T02:19:06;97684.56;;;15.13;24.55
64064;BME280;50314;50.618;10.642;2023-02-04T02:21:43;97689.13;;;15.11;24.41
64064;BME280;50314;50.618;10.642;2023-02-04T02:24:37;97687.69;;;15.07;24.56
64064;BME280;50314;50.618;10.642;2023-02-04T02:27:05;97689.25;;;15.10;24.74
64064;BME280;50314;50.618;10.642;2023-02-04T02:29:33;97685.66;;;15.11;24.47
64064;BME280;50314;50.618;10.642;2023-02-04T02:31:59;97690.09;;;15.10;24.61
64064;BME280;50314;50.618;10.642;2023-02-04T02:34:25;97689.13;;;15.11;24.55
64064;BME280;50314;50.618;10.642;2023-02-04T02:36:52;97697.09;;;15.11;24.80
64064;BME280;50314;50.618;10.642;2023-02-04T02:39:18;97697.09;;;15.11;24.75
64064;BME280;50314;50.618;10.642;2023-02-04T02:41:44;97707.72;;;15.11;24.47
64064;BME280;50314;50.618;10.642;2023-02-04T02:44:11;97709.53;;;15.11;24.71
64064;BME280;50314;50.618;10.642;2023-02-04T02:46:38;97714.69;;;15.12;24.33
64064;BME280;50314;50.618;10.642;2023-02-04T02:49:03;97715.66;;;15.11;24.62
64064;BME280;50314;50.618;10.642;2023-02-04T02:51:29;97717.34;;;15.12;24.38
64064;BME280;50314;50.618;10.642;2023-02-04T02:53:55;97728.94;;;15.11;24.32
64064;BME280;50314;50.618;10.642;2023-02-04T02:56:21;97741.22;;;15.12;24.71
64064;BME280;50314;50.618;10.642;2023-02-04T02:58:46;97745.69;;;15.12;24.57
64064;BME280;50314;50.618;10.642;2023-02-04T03:01:12;97745.69;;;15.12;24.25
64064;BME280;50314;50.618;10.642;2023-02-04T03:03:42;97744.84;;;15.11;24.41
64064;BME280;50314;50.618;10.642;2023-02-04T03:06:13;97738.72;;;15.11;24.71
64064;BME280;50314;50.618;10.642;2023-02-04T03:08:41;97743.03;;;15.12;24.36
64064;BME280;50314;50.618;10.642;2023-02-04T03:11:08;97745.69;;;15.12;24.68
64064;BME280;50314;50.618;10.642;2023-02-04T03:13:33;97743.03;;;15.12;24.58
64064;BME280;50314;50.618;10.642;2023-02-04T03:16:00;97754.50;;;15.12;24.50
64064;BME280;50314;50.618;10.642;2023-02-04T03:18:26;97761.63;;;15.12;24.49
64064;BME280;50314;50.618;10.642;2023-02-04T03:20:52;97765.94;;;15.13;24.80
64064;BME280;50314;50.618;10.642;2023-02-04T03:23:18;97773.81;;;15.14;24.46
64064;BME280;50314;50.618;10.642;2023-02-04T03:25:44;97778.28;;;15.14;24.32
64064;BME280;50314;50.618;10.642;2023-02-04T03:28:10;97777.31;;;15.15;24.68
64064;BME280;50314;50.618;10.642;2023-02-04T03:30:35;97781.78;;;15.14;24.56
64064;BME280;50314;50.618;10.642;2023-02-04T03:33:01;97780.94;;;15.14;24.42
64064;BME280;50314;50.618;10.642;2023-02-04T03:35:26;97787.91;;;15.15;24.52
64064;BME280;50314;50.618;10.642;2023-02-04T03:37:52;97783.59;;;15.14;24.72
64064;BME280;50314;50.618;10.642;2023-02-04T03:40:17;97790.56;;;15.15;24.20
64064;BME280;50314;50.618;10.642;2023-02-04T03:42:43;97797.69;;;15.14;24.39
64064;BME280;50314;50.618;10.642;2023-02-04T03:45:08;97798.53;;;15.15;24.64
64064;BME280;50314;50.618;10.642;2023-02-04T03:47:34;97810.84;;;15.16;24.31
64064;BME280;50314;50.618;10.642;2023-02-04T03:49:59;97810.97;;;15.14;24.24
64064;BME280;50314;50.618;10.642;2023-02-04T03:52:25;97815.28;;;15.15;24.51
64064;BME280;50314;50.618;10.642;2023-02-04T03:54:50;97818.78;;;15.16;24.56
64064;BME280;50314;50.618;10.642;2023-02-04T03:57:15;97817.13;;;15.15;24.54
64064;BME280;50314;50.618;10.642;2023-02-04T03:59:41;97826.75;;;15.16;24.63
64064;BME280;50314;50.618;10.642;2023-02-04T04:02:06;97832.06;;;15.16;24.54
64064;BME280;50314;50.618;10.642;2023-02-04T04:04:32;97842.69;;;15.16;24.33
64064;BME280;50314;50.618;10.642;2023-02-04T04:06:57;97836.53;;;15.15;24.56
64064;BME280;50314;50.618;10.642;2023-02-04T04:09:23;97837.38;;;15.16;24.36
64064;BME280;50314;50.618;10.642;2023-02-04T04:11:48;97843.50;;;15.16;24.54
64064;BME280;50314;50.618;10.642;2023-02-04T04:14:13;97855.00;;;15.17;24.46
64064;BME280;50314;50.618;10.642;2023-02-04T04:16:39;97855.09;;;15.15;24.56
64064;BME280;50314;50.618;10.642;2023-02-04T04:19:04;97862.09;;;15.16;24.35
64064;BME280;50314;50.618;10.642;2023-02-04T04:21:30;97880.66;;;15.16;24.30
64064;BME280;50314;50.618;10.642;2023-02-04T04:23:55;97885.97;;;15.16;24.30
64064;BME280;50314;50.618;10.642;2023-02-04T04:26:21;97891.28;;;15.16;24.33
64064;BME280;50314;50.618;10.642;2023-02-04T04:28:46;97899.25;;;15.16;24.51
64064;BME280;50314;50.618;10.642;2023-02-04T04:31:12;97897.47;;;15.17;24.29
64064;BME280;50314;50.618;10.642;2023-02-04T04:33:37;97900.13;;;15.17;24.23
64064;BME280;50314;50.618;10.642;2023-02-04T04:36:04;97909.84;;;15.16;24.36
64064;BME280;50314;50.618;10.642;2023-02-04T04:38:29;97924.94;;;15.16;24.45
64064;BME280;50314;50.618;10.642;2023-02-04T04:40:55;97924.94;;;15.16;24.04
64064;BME280;50314;50.618;10.642;2023-02-04T04:43:20;97931.09;;;15.16;24.31
64064;BME280;50314;50.618;10.642;2023-02-04T04:45:45;97935.56;;;15.16;24.69
64064;BME280;50314;50.618;10.642;2023-02-04T04:48:11;97940.84;;;15.16;24.45
64064;BME280;50314;50.618;10.642;2023-02-04T04:50:36;97932.91;;;15.16;24.37
64064;BME280;50314;50.618;10.642;2023-02-04T04:53:02;97947.25;;;15.13;24.38
64064;BME280;50314;50.618;10.642;2023-02-04T04:55:27;97945.44;;;15.14;24.37
64064;BME280;50314;50.618;10.642;2023-02-04T04:57:53;97959.56;;;15.14;24.65
64064;BME280;50314;50.618;10.642;2023-02-04T05:00:20;97962.31;;;15.13;24.16
64064;BME280;50314;50.618;10.642;2023-02-04T05:02:45;97963.28;;;15.12;24.49
64064;BME280;50314;50.618;10.642;2023-02-04T05:05:12;97964.13;;;15.12;24.57
64064;BME280;50314;50.618;10.642;2023-02-04T05:07:38;97959.66;;;15.13;24.50
64064;BME280;50314;50.618;10.642;2023-02-04T05:10:04;97970.28;;;15.13;24.44
64064;BME280;50314;50.618;10.642;2023-02-04T05:12:30;97976.53;;;15.12;24.60
64064;BME280;50314;50.618;10.642;2023-02-04T05:14:55;97979.19;;;15.12;24.43
64064;BME280;50314;50.618;10.642;2023-02-04T05:17:21;97979.19;;;15.12;24.43
64064;BME280;50314;50.618;10.642;2023-02-04T05:19:46;97978.44;;;15.10;24.20
64064;BME280;50314;50.618;10.642;2023-02-04T05:22:12;97979.41;;;15.09;24.32
64064;BME280;50314;50.618;10.642;2023-02-04T05:24:37;97986.53;;;15.08;24.51
64064;BME280;50314;50.618;10.642;2023-02-04T05:27:02;97991.84;;;15.08;24.39
64064;BME280;50314;50.618;10.642;2023-02-04T05:29:28;97992.69;;;15.09;24.23
64064;BME280;50314;50.618;10.642;2023-02-04T05:31:53;97993.66;;;15.08;24.27
64064;BME280;50314;50.618;10.642;2023-02-04T05:34:19;97991.00;;;15.08;24.35
64064;BME280;50314;50.618;10.642;2023-02-04T05:36:44;97998.97;;;15.08;24.53
64064;BME280;50314;50.618;10.642;2023-02-04T05:39:10;97994.63;;;15.07;24.50
64064;BME280;50314;50.618;10.642;2023-02-04T05:41:35;98003.41;;;15.07;24.22
64064;BME280;50314;50.618;10.642;2023-02-04T05:44:02;98010.41;;;15.08;24.46
64064;BME280;50314;50.618;10.642;2023-02-04T05:46:27;98014.03;;;15.07;24.62
64064;BME280;50314;50.618;10.642;2023-02-04T05:48:52;98014.03;;;15.07;24.26
64064;BME280;50314;50.618;10.642;2023-02-04T05:51:18;98025.50;;;15.08;24.59
64064;BME280;50314;50.618;10.642;2023-02-04T05:53:43;98029.09;;;15.07;24.29
64064;BME280;50314;50.618;10.642;2023-02-04T05:56:09;98040.56;;;15.07;24.26
64064;BME280;50314;50.618;10.642;2023-02-04T05:58:34;98038.84;;;15.06;24.21
64064;BME280;50314;50.618;10.642;2023-02-04T06:01:00;98038.84;;;15.06;24.27
64064;BME280;50314;50.618;10.642;2023-02-04T06:03:27;98040.66;;;15.06;24.26
64064;BME280;50314;50.618;10.642;2023-02-04T06:05:53;98052.03;;;15.08;24.20
64064;BME280;50314;50.618;10.642;2023-02-04T06:08:18;98051.19;;;15.07;24.59
64064;BME280;50314;50.618;10.642;2023-02-04T06:10:44;98057.34;;;15.08;24.24
64064;BME280;50314;50.618;10.642;2023-02-04T06:13:09;98072.41;;;15.07;24.35
64064;BME280;50314;50.618;10.642;2023-02-04T06:15:35;98074.22;;;15.07;24.39
64064;BME280;50314;50.618;10.642;2023-02-04T06:18:01;98067.94;;;15.08;24.20
64064;BME280;50314;50.618;10.642;2023-02-04T06:20:26;98081.22;;;15.08;24.57
64064;BME280;50314;50.618;10.642;2023-02-04T06:22:51;98083.03;;;15.07;24.30
64064;BME280;50314;50.618;10.642;2023-02-04T06:25:19;98081.31;;;15.06;24.24
64064;BME280;50314;50.618;10.642;2023-02-04T06:27:44;98094.47;;;15.08;24.57
64064;BME280;50314;50.618;10.642;2023-02-04T06:30:10;98095.44;;;15.07;24.26
64064;BME280;50314;50.618;10.642;2023-02-04T06:32:36;98099.78;;;15.08;24.42
64064;BME280;50314;50.618;10.642;2023-02-04T06:35:01;98098.81;;;15.09;24.29
64064;BME280;50314;50.618;10.642;2023-02-04T06:37:27;98098.09;;;15.07;24.56
64064;BME280;50314;50.618;10.642;2023-02-04T06:39:52;98102.53;;;15.06;24.16
64064;BME280;50314;50.618;10.642;2023-02-04T06:42:19;98106.16;;;15.05;24.34
64064;BME280;50314;50.618;10.642;2023-02-04T06:44:44;98100.75;;;15.07;24.55
64064;BME280;50314;50.618;10.642;2023-02-04T06:47:10;98094.56;;;15.06;24.33
64064;BME280;50314;50.618;10.642;2023-02-04T06:49:35;98105.09;;;15.08;24.15
64064;BME280;50314;50.618;10.642;2023-02-04T06:52:01;98115.78;;;15.06;24.34
64064;BME280;50314;50.618;10.642;2023-02-04T06:54:26;98124.72;;;15.05;24.48
64064;BME280;50314;50.618;10.642;2023-02-04T06:56:52;98132.69;;;15.05;24.65
64064;BME280;50314;50.618;10.642;2023-02-04T06:59:17;98140.75;;;15.03;24.43
64064;BME280;50314;50.618;10.642;2023-02-04T07:01:43;98137.13;;;15.04;24.35
64064;BME280;50314;50.618;10.642;2023-02-04T07:04:09;98130.88;;;15.06;24.66
64064;BME280;50314;50.618;10.642;2023-02-04T07:06:34;98132.59;;;15.07;24.43
64064;BME280;50314;50.618;10.642;2023-02-04T07:09:00;98135.25;;;15.07;24.42
64064;BME280;50314;50.618;10.642;2023-02-04T07:11:25;98135.25;;;15.07;24.56
64064;BME280;50314;50.618;10.642;2023-02-04T07:13:51;98131.63;;;15.08;24.47
64064;BME280;50314;50.618;10.642;2023-02-04T07:16:16;98138.63;;;15.09;24.43
64064;BME280;50314;50.618;10.642;2023-02-04T07:18:41;98142.13;;;15.09;24.53
64064;BME280;50314;50.618;10.642;2023-02-04T07:21:07;98153.56;;;15.10;24.71
64064;BME280;50314;50.618;10.642;2023-02-04T07:23:32;98160.69;;;15.09;24.39
64064;BME280;50314;50.618;10.642;2023-02-04T07:25:58;98166.84;;;15.10;24.57
64064;BME280;50314;50.618;10.642;2023-02-04T07:28:24;98173.13;;;15.09;24.51
64064;BME280;50314;50.618;10.642;2023-02-04T07:30:49;98181.06;;;15.09;24.76
64064;BME280;50314;50.618;10.642;2023-02-04T07:33:15;98188.06;;;15.10;24.61
64064;BME280;50314;50.618;10.642;2023-02-04T07:35:40;98199.66;;;15.09;24.69
64064;BME280;50314;50.618;10.642;2023-02-04T07:38:06;98197.84;;;15.09;24.41
64064;BME280;50314;50.618;10.642;2023-02-04T07:40:31;98204.88;;;15.10;24.37
64064;BME280;50314;50.618;10.642;2023-02-04T07:42:57;98198.69;;;15.10;24.55
64064;BME280;50314;50.618;10.642;2023-02-04T07:45:23;98205.72;;;15.11;24.49
64064;BME280;50314;50.618;10.642;2023-02-04T07:47:48;98210.19;;;15.10;24.50
64064;BME280;50314;50.618;10.642;2023-02-04T07:50:14;98218.97;;;15.11;24.81
64064;BME280;50314;50.618;10.642;2023-02-04T07:52:40;98222.47;;;15.11;25.28
64064;BME280;50314;50.618;10.642;2023-02-04T07:55:06;98230.31;;;15.13;25.06
64064;BME280;50314;50.618;10.642;2023-02-04T07:57:32;98231.94;;;15.15;25.10
64064;BME280;50314;50.618;10.642;2023-02-04T07:59:58;98239.81;;;15.17;25.27
64064;BME280;50314;50.618;10.642;2023-02-04T08:02:23;98248.59;;;15.17;25.08
64064;BME280;50314;50.618;10.642;2023-02-04T08:04:49;98247.63;;;15.18;25.41
64064;BME280;50314;50.618;10.642;2023-02-04T08:07:15;98254.75;;;15.18;25.23
64064;BME280;50314;50.618;10.642;2023-02-04T08:09:40;98245.00;;;15.18;25.32
64064;BME280;50314;50.618;10.642;2023-02-04T08:12:06;98249.44;;;15.18;24.20
64064;BME280;50314;50.618;10.642;2023-02-04T08:14:31;98257.63;;;15.15;24.28
64064;BME280;50314;50.618;10.642;2023-02-04T08:16:57;98251.47;;;15.14;24.30
64064;BME280;50314;50.618;10.642;2023-02-04T08:19:22;98263.78;;;15.15;24.42
64064;BME280;50314;50.618;10.642;2023-02-04T08:21:48;98267.47;;;15.13;24.62
64064;BME280;50314;50.618;10.642;2023-02-04T08:24:14;98270.03;;;15.14;24.52
64064;BME280;50314;50.618;10.642;2023-02-04T08:26:40;98273.53;;;15.15;24.64
64064;BME280;50314;50.618;10.642;2023-02-04T08:29:06;98278.72;;;15.16;24.36
64064;BME280;50314;50.618;10.642;2023-02-04T08:31:33;98288.41;;;15.17;24.59
64064;BME280;50314;50.618;10.642;2023-02-04T08:33:58;98283.19;;;15.16;24.64
64064;BME280;50314;50.618;10.642;2023-02-04T08:36:24;98297.31;;;15.16;24.37
64064;BME280;50314;50.618;10.642;2023-02-04T08:38:50;98319.28;;;15.18;24.43
64064;BME280;50314;50.618;10.642;2023-02-04T08:41:15;98314.09;;;15.17;24.43
64064;BME280;50314;50.618;10.642;2023-02-04T08:43:40;98318.34;;;15.19;24.39
64064;BME280;50314;50.618;10.642;2023-02-04T08:46:06;98315.69;;;15.19;24.47
64064;BME280;50314;50.618;10.642;2023-02-04T08:48:31;98315.69;;;15.19;24.33
64064;BME280;50314;50.618;10.642;2023-02-04T08:50:57;98321.88;;;15.20;24.42
64064;BME280;50314;50.618;10.642;2023-02-04T08:53:22;98321.88;;;15.20;24.36
64064;BME280;50314;50.618;10.642;2023-02-04T08:55:48;98331.53;;;15.21;24.62
64064;BME280;50314;50.618;10.642;2023-02-04T08:58:13;98335.88;;;15.22;24.64
64064;BME280;50314;50.618;10.642;2023-02-04T09:00:39;98334.81;;;15.24;24.32
64064;BME280;50314;50.618;10.642;2023-02-04T09:03:04;98341.81;;;15.25;24.57
64064;BME280;50314;50.618;10.642;2023-02-04T09:05:30;98338.31;;;15.25;24.60
64064;BME280;50314;50.618;10.642;2023-02-04T09:07:55;98343.50;;;15.26;24.46
64064;BME280;50314;50.618;10.642;2023-02-04T09:10:20;98354.03;;;15.28;24.39
64064;BME280;50314;50.618;10.642;2023-02-04T09:12:46;98354.13;;;15.26;24.41
64064;BME280;50314;50.618;10.642;2023-02-04T09:15:12;98359.34;;;15.28;24.53
64064;BME280;50314;50.618;10.642;2023-02-04T09:17:38;98362.00;;;15.28;24.42
64064;BME280;50314;50.618;10.642;2023-02-04T09:20:04;98355.84;;;15.27;24.55
64064;BME280;50314;50.618;10.642;2023-02-04T09:22:30;98363.69;;;15.29;24.35
64064;BME280;50314;50.618;10.642;2023-02-04T09:24:56;98368.16;;;15.28;24.51
64064;BME280;50314;50.618;10.642;2023-02-04T09:27:21;98369.00;;;15.29;24.70
64064;BME280;50314;50.618;10.642;2023-02-04T09:29:47;98374.31;;;15.29;24.45
64064;BME280;50314;50.618;10.642;2023-02-04T09:32:12;98376.03;;;15.30;24.65
64064;BME280;50314;50.618;10.642;2023-02-04T09:34:38;98380.38;;;15.31;24.59
64064;BME280;50314;50.618;10.642;2023-02-04T09:37:03;98385.56;;;15.33;24.61
64064;BME280;50314;50.618;10.642;2023-02-04T09:39:28;98381.09;;;15.33;24.27
64064;BME280;50314;50.618;10.642;2023-02-04T09:41:54;98382.00;;;15.34;24.63
64064;BME280;50314;50.618;10.642;2023-02-04T09:44:22;98380.06;;;15.36;24.92
64064;BME280;50314;50.618;10.642;2023-02-04T09:46:55;98380.81;;;15.38;24.99
64064;BME280;50314;50.618;10.642;2023-02-04T09:49:21;98375.41;;;15.39;24.96
64064;BME280;50314;50.618;10.642;2023-02-04T09:51:48;98374.38;;;15.42;24.81
64064;BME280;50314;50.618;10.642;2023-02-04T09:54:19;98383.19;;;15.42;25.01
64064;BME280;50314;50.618;10.642;2023-02-04T09:56:45;98381.09;;;15.47;24.60
64064;BME280;50314;50.618;10.642;2023-02-04T09:59:19;98378.22;;;15.50;24.83
64064;BME280;50314;50.618;10.642;2023-02-04T10:01:58;98377.47;;;15.48;24.57
64064;BME280;50314;50.618;10.642;2023-02-04T10:04:24;98380.56;;;15.55;24.58
64064;BME280;50314;50.618;10.642;2023-02-04T10:06:50;98385.66;;;15.58;24.70
64064;BME280;50314;50.618;10.642;2023-02-04T10:09:16;98390.03;;;15.59;24.69
64064;BME280;50314;50.618;10.642;2023-02-04T10:11:43;98391.63;;;15.62;24.55
64064;BME280;50314;50.618;10.642;2023-02-04T10:14:14;98387.16;;;15.62;23.39
64064;BME280;50314;50.618;10.642;2023-02-04T10:16:42;98388.13;;;15.61;23.83
64064;BME280;50314;50.618;10.642;2023-02-04T10:19:14;98389.94;;;15.61;24.08
64064;BME280;50314;50.618;10.642;2023-02-04T10:21:42;98386.09;;;15.65;23.95
64064;BME280;50314;50.618;10.642;2023-02-04T10:24:17;98388.84;;;15.63;23.89
64064;BME280;50314;50.618;10.642;2023-02-04T10:26:43;98389.50;;;15.67;24.25
64064;BME280;50314;50.618;10.642;2023-02-04T10:29:15;98399.28;;;15.66;24.06
64064;BME280;50314;50.618;10.642;2023-02-04T10:31:43;98412.25;;;15.71;24.02
64064;BME280;50314;50.618;10.642;2023-02-04T10:34:36;98403.53;;;15.69;24.01
64064;BME280;50314;50.618;10.642;2023-02-04T10:37:18;98407.88;;;15.70;23.97
64064;BME280;50314;50.618;10.642;2023-02-04T10:39:43;98418.28;;;15.73;23.87
64064;BME280;50314;50.618;10.642;2023-02-04T10:42:20;98416.72;;;15.70;23.98
64064;BME280;50314;50.618;10.642;2023-02-04T10:44:46;98417.13;;;15.77;23.80
64064;BME280;50314;50.618;10.642;2023-02-04T10:47:18;98413.75;;;15.75;23.84
64064;BME280;50314;50.618;10.642;2023-02-04T10:50:13;98420.09;;;15.72;23.69
64064;BME280;50314;50.618;10.642;2023-02-04T10:52:45;98417.38;;;15.74;23.81
64064;BME280;50314;50.618;10.642;2023-02-04T10:55:14;98419.91;;;15.76;24.12
64064;BME280;50314;50.618;10.642;2023-02-04T10:57:43;98426.91;;;15.77;24.07
64064;BME280;50314;50.618;10.642;2023-02-04T11:00:22;98414.78;;;15.72;24.13
64064;BME280;50314;50.618;10.642;2023-02-04T11:03:24;98427.22;;;15.72;24.23
64064;BME280;50314;50.618;10.642;2023-02-04T11:05:51;98427.75;;;15.77;24.08
64064;BME280;50314;50.618;10.642;2023-02-04T11:08:22;98419.91;;;15.76;23.94
64064;BME280;50314;50.618;10.642;2023-02-04T11:10:50;98418.00;;;15.78;24.23
64064;BME280;50314;50.618;10.642;2023-02-04T11:13:38;98428.63;;;15.78;24.14
64064;BME280;50314;50.618;10.642;2023-02-04T11:26:44;98446.16;;;15.80;24.29
64064;BME280;50314;50.618;10.642;2023-02-04T11:29:24;98447.66;;;15.84;24.23
64064;BME280;50314;50.618;10.642;2023-02-04T11:36:55;98460.06;;;15.84;24.25
64064;BME280;50314;50.618;10.642;2023-02-04T11:39:44;98466.25;;;15.84;24.09
64064;BME280;50314;50.618;10.642;2023-02-04T11:42:28;98460.81;;;15.86;24.27
64064;BME280;50314;50.618;10.642;2023-02-04T11:45:11;98464.34;;;15.86;24.40
64064;BME280;50314;50.618;10.642;2023-02-04T11:47:37;98467.53;;;15.91;24.28
64064;BME280;50314;50.618;10.642;2023-02-04T11:50:16;98472.84;;;15.91;23.99
64064;BME280;50314;50.618;10.642;2023-02-04T11:52:42;98471.69;;;15.95;24.16
64064;BME280;50314;50.618;10.642;2023-02-04T11:55:09;98478.59;;;15.98;24.06
64064;BME280;50314;50.618;10.642;2023-02-04T11:57:42;98475.41;;;15.93;24.33
64064;BME280;50314;50.618;10.642;2023-02-04T12:00:29;98480.50;;;15.96;24.31
64064;BME280;50314;50.618;10.642;2023-02-04T12:05:34;98482.53;;;16.05;24.00
64064;BME280;50314;50.618;10.642;2023-02-04T12:08:09;98486.06;;;16.06;23.96
64064;BME280;50314;50.618;10.642;2023-02-04T12:10:35;98481.25;;;16.11;23.99
64064;BME280;50314;50.618;10.642;2023-02-04T12:13:11;98477.13;;;16.07;24.04
64064;BME280;50314;50.618;10.642;2023-02-04T12:15:40;98479.38;;;16.13;24.02
64064;BME280;50314;50.618;10.642;2023-02-04T12:18:09;98475.88;;;16.12;24.04
64064;BME280;50314;50.618;10.642;2023-02-04T12:20:40;98469.50;;;16.15;23.87
64064;BME280;50314;50.618;10.642;2023-02-04T12:23:06;98472.06;;;16.16;24.06
64064;BME280;50314;50.618;10.642;2023-02-04T12:25:32;98484.38;;;16.17;23.97
64064;BME280;50314;50.618;10.642;2023-02-04T12:27:58;98480.88;;;16.17;24.00
64064;BME280;50314;50.618;10.642;2023-02-04T12:30:26;98476.31;;;16.19;23.94
64064;BME280;50314;50.618;10.642;2023-02-04T12:32:51;98465.56;;;16.20;23.86
64064;BME280;50314;50.618;10.642;2023-02-04T12:35:17;98476.09;;;16.22;24.00
64064;BME280;50314;50.618;10.642;2023-02-04T12:37:43;98484.81;;;16.24;24.18
64064;BME280;50314;50.618;10.642;2023-02-04T12:40:14;98479.69;;;16.21;23.89
64064;BME280;50314;50.618;10.642;2023-02-04T12:42:40;98476.94;;;16.23;23.79
64064;BME280;50314;50.618;10.642;2023-02-04T12:45:05;98471.50;;;16.24;23.85
64064;BME280;50314;50.618;10.642;2023-02-04T12:47:31;98470.56;;;16.25;23.87
64064;BME280;50314;50.618;10.642;2023-02-04T12:49:56;98467.06;;;16.25;23.78
64064;BME280;50314;50.618;10.642;2023-02-04T12:52:22;98474.16;;;16.24;24.11
64064;BME280;50314;50.618;10.642;2023-02-04T12:54:48;98468.84;;;16.24;23.24
64064;BME280;50314;50.618;10.642;2023-02-04T12:57:13;98468.97;;;16.23;23.12
64064;BME280;50314;50.618;10.642;2023-02-04T12:59:44;98473.31;;;16.24;23.73
64064;BME280;50314;50.618;10.642;2023-02-04T13:02:10;98474.38;;;16.21;23.58
64064;BME280;50314;50.618;10.642;2023-02-04T13:04:35;98478.00;;;16.20;23.66
64064;BME280;50314;50.618;10.642;2023-02-04T13:07:01;98473.66;;;16.19;23.83